createdAt,value
2018-09-04T00:00:00.366Z,0
2018-09-04T00:01:00.122Z,0
2018-09-04T00:02:00.103Z,0
2018-09-04T00:03:00.354Z,0
2018-09-04T00:04:00.347Z,0
2018-09-04T00:05:00.596Z,0
2018-09-04T00:06:00.593Z,0
2018-09-04T00:07:00.335Z,0
2018-09-04T00:08:00.835Z,0
2018-09-04T00:09:00.325Z,0
2018-09-04T00:10:00.589Z,0
2018-09-04T00:11:00.569Z,0
2018-09-04T00:12:00.565Z,0
2018-09-04T00:13:00.564Z,0
2018-09-04T00:14:00.058Z,0
2018-09-04T00:15:00.557Z,0
2018-09-04T00:16:00.549Z,0
2018-09-04T00:17:00.552Z,0
2018-09-04T00:18:00.542Z,0
2018-09-04T00:19:00.534Z,0
2018-09-04T00:20:00.535Z,0
2018-09-04T00:21:00.528Z,0
2018-09-04T00:22:00.530Z,0
2018-09-04T00:23:00.517Z,0
2018-09-04T00:24:00.261Z,0
2018-09-04T00:25:00.275Z,0
2018-09-04T00:26:00.522Z,0
2018-09-04T00:27:00.502Z,0
2018-09-04T00:28:00.501Z,0
2018-09-04T00:29:00.242Z,0
2018-09-04T00:30:00.492Z,0
2018-09-04T00:31:00.490Z,0
2018-09-04T00:32:00.489Z,0
2018-09-04T00:33:00.240Z,0
2018-09-04T00:34:00.226Z,0
2018-09-04T00:35:00.018Z,0
2018-09-04T00:36:00.469Z,0
2018-09-04T00:37:00.466Z,0
2018-09-04T00:38:00.456Z,0
2018-09-04T00:39:00.701Z,0
2018-09-04T00:40:00.201Z,0
2018-09-04T00:41:00.446Z,0
2018-09-04T00:42:00.190Z,0
2018-09-04T00:43:00.443Z,0
2018-09-04T00:44:00.441Z,0
2018-09-04T00:45:00.440Z,0
2018-09-04T00:46:00.180Z,0
2018-09-04T00:47:00.167Z,0
2018-09-04T00:48:00.165Z,0
2018-09-04T00:49:00.410Z,0
2018-09-04T00:50:00.153Z,0
2018-09-04T00:51:00.404Z,0
2018-09-04T00:52:00.404Z,0
2018-09-04T00:53:00.394Z,0
2018-09-04T00:54:00.404Z,0
2018-09-04T00:55:00.133Z,0
2018-09-04T00:56:00.391Z,0
2018-09-04T00:57:00.377Z,0
2018-09-04T00:58:00.372Z,0
2018-09-04T00:59:00.546Z,0
2018-09-04T01:00:00.362Z,0
2018-09-04T01:01:00.356Z,0
2018-09-04T01:02:00.102Z,0
2018-09-04T01:03:00.348Z,0
2018-09-04T01:04:00.355Z,0
2018-09-04T01:05:00.092Z,0
2018-09-04T01:06:00.332Z,0
2018-09-04T01:07:00.332Z,0
2018-09-04T01:08:00.328Z,0
2018-09-04T01:09:00.071Z,0
2018-09-04T01:10:00.587Z,0
2018-09-04T01:11:00.314Z,0
2018-09-04T01:12:00.309Z,0
2018-09-04T01:13:00.305Z,0
2018-09-04T01:14:00.308Z,0
2018-09-04T01:15:00.293Z,0
2018-09-04T01:16:00.303Z,0
2018-09-04T01:17:00.285Z,0
2018-09-04T01:18:00.283Z,0
2018-09-04T01:19:00.024Z,0
2018-09-04T01:20:00.018Z,0
2018-09-04T01:21:00.270Z,0
2018-09-04T01:22:00.305Z,0
2018-09-04T01:23:00.255Z,0
2018-09-04T01:24:00.259Z,0
2018-09-04T01:24:59.998Z,0
2018-09-04T01:26:00.248Z,0
2018-09-04T01:27:00.249Z,0
2018-09-04T01:28:00.239Z,0
2018-09-04T01:28:59.980Z,0
2018-09-04T01:29:59.722Z,0
2018-09-04T01:30:59.985Z,0
2018-09-04T01:32:00.219Z,0
2018-09-04T01:33:00.227Z,0
2018-09-04T01:33:59.962Z,0
2018-09-04T01:35:00.205Z,0
2018-09-04T01:36:00.205Z,0
2018-09-04T01:37:00.196Z,0
2018-09-04T01:38:00.195Z,0
2018-09-04T01:39:00.191Z,0
2018-09-04T01:40:00.186Z,0
2018-09-04T01:41:00.426Z,0
2018-09-04T01:41:59.930Z,0
2018-09-04T01:43:00.175Z,0
2018-09-04T01:44:00.163Z,0
2018-09-04T01:45:00.162Z,0
2018-09-04T01:46:00.207Z,0
2018-09-04T01:47:00.154Z,0
2018-09-04T01:48:00.151Z,0
2018-09-04T01:49:00.143Z,0
2018-09-04T01:49:59.884Z,0
2018-09-04T01:50:59.885Z,0
2018-09-04T01:52:00.135Z,0
2018-09-04T01:53:00.128Z,0
2018-09-04T01:54:00.118Z,0
2018-09-04T01:54:59.866Z,0
2018-09-04T01:55:59.859Z,0
2018-09-04T01:56:59.854Z,0
2018-09-04T01:57:59.596Z,0
2018-09-04T01:59:00.095Z,0
2018-09-04T02:00:00.088Z,0
2018-09-04T02:01:00.086Z,0
2018-09-04T02:02:00.087Z,0
2018-09-04T02:03:00.074Z,0
2018-09-04T02:04:00.076Z,0
2018-09-04T02:04:59.815Z,0
2018-09-04T02:06:00.070Z,0
2018-09-04T02:06:59.805Z,0
2018-09-04T02:08:00.054Z,0
2018-09-04T02:08:59.802Z,0
2018-09-04T02:10:00.044Z,0
2018-09-04T02:10:59.533Z,0
2018-09-04T02:12:00.048Z,0
2018-09-04T02:13:00.083Z,0
2018-09-04T02:14:00.024Z,0
2018-09-04T02:15:00.023Z,0
2018-09-04T02:15:59.762Z,0
2018-09-04T02:17:00.014Z,0
2018-09-04T02:18:00.013Z,0
2018-09-04T02:19:00.005Z,0
2018-09-04T02:19:59.995Z,0
2018-09-04T02:20:59.991Z,0
2018-09-04T02:21:59.988Z,0
2018-09-04T02:22:59.982Z,0
2018-09-04T02:23:59.980Z,0
2018-09-04T02:24:59.973Z,0
2018-09-04T02:25:59.966Z,0
2018-09-04T02:26:59.964Z,0
2018-09-04T02:27:59.711Z,0
2018-09-04T02:28:59.702Z,0
2018-09-04T02:29:59.947Z,0
2018-09-04T02:30:59.695Z,0
2018-09-04T02:31:59.938Z,0
2018-09-04T02:33:00.044Z,0
2018-09-04T02:33:59.678Z,0
2018-09-04T02:34:59.727Z,0
2018-09-04T02:35:59.925Z,0
2018-09-04T02:36:59.662Z,0
2018-09-04T02:37:59.912Z,0
2018-09-04T02:38:59.926Z,0
2018-09-04T02:39:59.906Z,0
2018-09-04T02:40:59.644Z,0
2018-09-04T02:41:59.896Z,0
2018-09-04T02:42:59.890Z,0
2018-09-04T02:44:00.134Z,0
2018-09-04T02:44:59.881Z,0
2018-09-04T02:45:59.904Z,0
2018-09-04T02:46:59.876Z,0
2018-09-04T02:47:59.608Z,0
2018-09-04T02:48:59.606Z,0
2018-09-04T02:49:59.350Z,0
2018-09-04T02:50:59.870Z,0
2018-09-04T02:51:59.855Z,0
2018-09-04T02:52:59.841Z,0
2018-09-04T02:53:59.585Z,0
2018-09-04T02:54:59.826Z,0
2018-09-04T02:55:59.832Z,0
2018-09-04T02:56:59.824Z,0
2018-09-04T02:57:59.825Z,0
2018-09-04T02:58:59.559Z,0
2018-09-04T02:59:59.805Z,0
2018-09-04T03:00:59.804Z,0
2018-09-04T03:01:59.813Z,0
2018-09-04T03:02:59.792Z,0
2018-09-04T03:03:59.786Z,0
2018-09-04T03:04:59.782Z,0
2018-09-04T03:05:59.280Z,0
2018-09-04T03:06:59.777Z,0
2018-09-04T03:07:59.769Z,0
2018-09-04T03:08:59.758Z,0
2018-09-04T03:09:59.755Z,0
2018-09-04T03:10:59.757Z,0
2018-09-04T03:11:59.758Z,0
2018-09-04T03:12:59.741Z,0
2018-09-04T03:13:59.854Z,0
2018-09-04T03:14:59.733Z,0
2018-09-04T03:15:59.740Z,0
2018-09-04T03:16:59.471Z,0
2018-09-04T03:17:59.467Z,0
2018-09-04T03:18:59.720Z,0
2018-09-04T03:19:59.723Z,0
2018-09-04T03:20:59.466Z,0
2018-09-04T03:21:59.447Z,0
2018-09-04T03:22:59.810Z,0
2018-09-04T03:23:59.435Z,0
2018-09-04T03:24:59.684Z,0
2018-09-04T03:25:59.680Z,0
2018-09-04T03:26:59.424Z,0
2018-09-04T03:27:59.426Z,0
2018-09-04T03:28:59.416Z,0
2018-09-04T03:29:59.155Z,0
2018-09-04T03:30:59.151Z,0
2018-09-04T03:31:59.656Z,0
2018-09-04T03:32:59.646Z,0
2018-09-04T03:33:59.640Z,0
2018-09-04T03:34:59.638Z,0
2018-09-04T03:35:59.628Z,0
2018-09-04T03:36:59.625Z,0
2018-09-04T03:37:59.635Z,0
2018-09-04T03:38:59.617Z,0
2018-09-04T03:39:59.107Z,0
2018-09-04T03:40:59.617Z,0
2018-09-04T03:41:59.599Z,0
2018-09-04T03:42:59.598Z,0
2018-09-04T03:43:59.342Z,0
2018-09-04T03:44:59.589Z,0
2018-09-04T03:45:59.836Z,4
2018-09-04T03:46:59.322Z,4
2018-09-04T03:47:59.569Z,0
2018-09-04T03:48:59.331Z,4
2018-09-04T03:49:59.560Z,4
2018-09-04T03:50:59.554Z,4
2018-09-04T03:51:59.303Z,8
2018-09-04T03:52:59.292Z,8
2018-09-04T03:53:59.286Z,8
2018-09-04T03:54:59.281Z,8
2018-09-04T03:55:59.532Z,12
2018-09-04T03:56:59.272Z,12
2018-09-04T03:57:59.271Z,16
2018-09-04T03:58:59.514Z,16
2018-09-04T03:59:59.513Z,24
2018-09-04T04:00:59.248Z,24
2018-09-04T04:01:59.509Z,32
2018-09-04T04:02:59.490Z,36
2018-09-04T04:03:59.506Z,40
2018-09-04T04:04:59.225Z,48
2018-09-04T04:05:59.228Z,56
2018-09-04T04:06:59.472Z,60
2018-09-04T04:07:59.468Z,72
2018-09-04T04:08:59.208Z,80
2018-09-04T04:09:59.202Z,92
2018-09-04T04:10:59.204Z,132
2018-09-04T04:11:59.718Z,152
2018-09-04T04:12:59.437Z,172
2018-09-04T04:13:59.445Z,188
2018-09-04T04:14:59.428Z,208
2018-09-04T04:15:59.428Z,232
2018-09-04T04:16:59.665Z,220
2018-09-04T04:17:59.414Z,244
2018-09-04T04:18:59.404Z,272
2018-09-04T04:19:59.403Z,304
2018-09-04T04:20:59.142Z,332
2018-09-04T04:21:59.393Z,364
2018-09-04T04:22:59.383Z,404
2018-09-04T04:23:59.499Z,440
2018-09-04T04:24:59.130Z,476
2018-09-04T04:25:59.117Z,516
2018-09-04T04:26:59.369Z,556
2018-09-04T04:27:59.363Z,600
2018-09-04T04:28:59.362Z,644
2018-09-04T04:29:59.100Z,688
2018-09-04T04:30:59.350Z,740
2018-09-04T04:31:59.346Z,792
2018-09-04T04:32:59.581Z,848
2018-09-04T04:33:59.328Z,904
2018-09-04T04:34:59.320Z,964
2018-09-04T04:35:59.325Z,1028
2018-09-04T04:36:59.308Z,1088
2018-09-04T04:37:59.307Z,1156
2018-09-04T04:38:59.048Z,1220
2018-09-04T04:39:59.208Z,1288
2018-09-04T04:40:59.038Z,1360
2018-09-04T04:41:59.031Z,1436
2018-09-04T04:42:59.278Z,1516
2018-09-04T04:43:59.021Z,1600
2018-09-04T04:44:59.269Z,1684
2018-09-04T04:45:59.262Z,1772
2018-09-04T04:46:59.257Z,1844
2018-09-04T04:47:59.656Z,1924
2018-09-04T04:48:59.248Z,2012
2018-09-04T04:49:58.744Z,2092
2018-09-04T04:50:59.254Z,2164
2018-09-04T04:51:59.237Z,2220
2018-09-04T04:52:59.230Z,2252
2018-09-04T04:53:59.222Z,2288
2018-09-04T04:54:59.222Z,2352
2018-09-04T04:55:59.270Z,2436
2018-09-04T04:56:58.956Z,2516
2018-09-04T04:57:58.702Z,2540
2018-09-04T04:58:59.249Z,2468
2018-09-04T04:59:59.194Z,2312
2018-09-04T05:00:59.194Z,2204
2018-09-04T05:01:59.182Z,2108
2018-09-04T05:02:59.180Z,2052
2018-09-04T05:03:59.181Z,2040
2018-09-04T05:04:58.926Z,2072
2018-09-04T05:05:59.169Z,2116
2018-09-04T05:06:58.662Z,2152
2018-09-04T05:07:58.904Z,2184
2018-09-04T05:08:59.153Z,2196
2018-09-04T05:09:59.149Z,2304
2018-09-04T05:10:59.026Z,2464
2018-09-04T05:11:58.970Z,2516
2018-09-04T05:12:59.145Z,2588
2018-09-04T05:13:59.128Z,2784
2018-09-04T05:14:59.126Z,2956
2018-09-04T05:15:58.870Z,3028
2018-09-04T05:16:59.123Z,2928
2018-09-04T05:17:58.863Z,2872
2018-09-04T05:18:59.359Z,2916
2018-09-04T05:19:58.858Z,3028
2018-09-04T05:20:59.112Z,3180
2018-09-04T05:21:58.849Z,3412
2018-09-04T05:22:59.098Z,3656
2018-09-04T05:23:58.844Z,3928
2018-09-04T05:24:59.120Z,4200
2018-09-04T05:25:59.082Z,4428
2018-09-04T05:26:58.841Z,4656
2018-09-04T05:27:58.826Z,4760
2018-09-04T05:28:59.073Z,4812
2018-09-04T05:29:58.813Z,4788
2018-09-04T05:30:59.063Z,4624
2018-09-04T05:31:59.058Z,4368
2018-09-04T05:32:59.055Z,4128
2018-09-04T05:33:59.054Z,3916
2018-09-04T05:34:58.800Z,3728
2018-09-04T05:35:59.060Z,3408
2018-09-04T05:36:59.181Z,3176
2018-09-04T05:37:59.036Z,2848
2018-09-04T05:38:59.026Z,2616
2018-09-04T05:39:59.024Z,2524
2018-09-04T05:40:59.023Z,2360
2018-09-04T05:41:59.023Z,2212
2018-09-04T05:42:59.013Z,2192
2018-09-04T05:43:58.764Z,2200
2018-09-04T05:44:59.005Z,2228
2018-09-04T05:45:59.016Z,2272
2018-09-04T05:46:58.997Z,2332
2018-09-04T05:47:58.991Z,2368
2018-09-04T05:48:58.996Z,2680
2018-09-04T05:49:58.980Z,3144
2018-09-04T05:50:58.744Z,3572
2018-09-04T05:51:58.725Z,3964
2018-09-04T05:52:58.720Z,4284
2018-09-04T05:53:58.970Z,4120
2018-09-04T05:54:58.971Z,3440
2018-09-04T05:55:58.961Z,3412
2018-09-04T05:56:58.967Z,3168
2018-09-04T05:57:58.955Z,3252
2018-09-04T05:58:58.705Z,3376
2018-09-04T05:59:58.943Z,3736
2018-09-04T06:00:58.946Z,4116
2018-09-04T06:01:58.685Z,4556
2018-09-04T06:02:58.946Z,4992
2018-09-04T06:03:58.948Z,5260
2018-09-04T06:04:58.422Z,5708
2018-09-04T06:05:58.922Z,6076
2018-09-04T06:06:58.415Z,6232
2018-09-04T06:07:58.918Z,6368
2018-09-04T06:08:58.916Z,6532
2018-09-04T06:09:58.915Z,6600
2018-09-04T06:10:58.949Z,6620
2018-09-04T06:11:58.654Z,6532
2018-09-04T06:12:58.392Z,6348
2018-09-04T06:13:58.616Z,6220
2018-09-04T06:14:58.896Z,6272
2018-09-04T06:15:58.635Z,6364
2018-09-04T06:16:58.886Z,7292
2018-09-04T06:17:58.882Z,6764
2018-09-04T06:18:58.876Z,6860
2018-09-04T06:19:59.031Z,7080
2018-09-04T06:20:58.366Z,7336
2018-09-04T06:21:58.615Z,7632
2018-09-04T06:22:58.617Z,7988
2018-09-04T06:23:58.861Z,8272
2018-09-04T06:24:58.607Z,9212
2018-09-04T06:25:58.874Z,14976
2018-09-04T06:26:58.851Z,15264
2018-09-04T06:27:58.345Z,21536
2018-09-04T06:28:58.345Z,15084
2018-09-04T06:29:58.840Z,13112
2018-09-04T06:30:58.846Z,16480
2018-09-04T06:31:58.332Z,30080
2018-09-04T06:32:58.832Z,26112
2018-09-04T06:33:58.599Z,18528
2018-09-04T06:34:58.835Z,17504
2018-09-04T06:35:58.574Z,15840
2018-09-04T06:36:58.579Z,15500
2018-09-04T06:37:58.828Z,15256
2018-09-04T06:38:58.581Z,16160
2018-09-04T06:39:58.821Z,21024
2018-09-04T06:40:58.822Z,20544
2018-09-04T06:41:58.829Z,24096
2018-09-04T06:42:58.814Z,25184
2018-09-04T06:43:58.827Z,25792
2018-09-04T06:44:58.824Z,24896
2018-09-04T06:45:58.570Z,24448
2018-09-04T06:46:58.874Z,24384
2018-09-04T06:47:58.819Z,24512
2018-09-04T06:48:58.811Z,25312
2018-09-04T06:49:58.817Z,22464
2018-09-04T06:50:58.563Z,17760
2018-09-04T06:51:58.561Z,17664
2018-09-04T06:52:59.063Z,17536
2018-09-04T06:53:58.816Z,17600
2018-09-04T06:54:58.817Z,17952
2018-09-04T06:55:58.318Z,18816
2018-09-04T06:56:58.824Z,20064
2018-09-04T06:57:59.302Z,24992
2018-09-04T06:58:58.839Z,21024
2018-09-04T06:59:58.576Z,20448
2018-09-04T07:00:58.574Z,28512
2018-09-04T07:01:58.837Z,29408
2018-09-04T07:02:58.583Z,30016
2018-09-04T07:03:58.831Z,27552
2018-09-04T07:04:58.330Z,26432
2018-09-04T07:05:58.970Z,31584
2018-09-04T07:06:58.588Z,34304
2018-09-04T07:07:58.588Z,32032
2018-09-04T07:08:58.846Z,31968
2018-09-04T07:09:58.844Z,30368
2018-09-04T07:10:58.598Z,31616
2018-09-04T07:11:58.357Z,30944
2018-09-04T07:12:58.859Z,34496
2018-09-04T07:13:58.607Z,36576
2018-09-04T07:14:58.674Z,36512
2018-09-04T07:15:58.627Z,33664
2018-09-04T07:16:59.108Z,34048
2018-09-04T07:17:58.633Z,37088
2018-09-04T07:18:58.632Z,37888
2018-09-04T07:19:58.641Z,35168
2018-09-04T07:20:58.639Z,34368
2018-09-04T07:21:58.896Z,37664
2018-09-04T07:22:58.898Z,40992
2018-09-04T07:23:59.330Z,42208
2018-09-04T07:24:58.155Z,42464
2018-09-04T07:25:58.916Z,40544
2018-09-04T07:26:58.932Z,38240
2018-09-04T07:27:58.929Z,41920
2018-09-04T07:28:58.941Z,49056
2018-09-04T07:29:58.949Z,51168
2018-09-04T07:30:58.947Z,51456
2018-09-04T07:31:58.706Z,54656
2018-09-04T07:32:58.963Z,62080
2018-09-04T07:33:58.731Z,63616
2018-09-04T07:34:58.775Z,54784
2018-09-04T07:35:58.738Z,47424
2018-09-04T07:36:58.995Z,48928
2018-09-04T07:37:58.751Z,54144
2018-09-04T07:38:59.017Z,55200
2018-09-04T07:39:59.030Z,55136
2018-09-04T07:40:59.030Z,57888
2018-09-04T07:41:59.440Z,59168
2018-09-04T07:42:58.791Z,56096
2018-09-04T07:43:58.803Z,55840
2018-09-04T07:44:59.066Z,58592
2018-09-04T07:45:59.074Z,57760
2018-09-04T07:46:59.078Z,53728
2018-09-04T07:47:59.093Z,52704
2018-09-04T07:48:59.101Z,49568
2018-09-04T07:49:59.112Z,42912
2018-09-04T07:50:59.120Z,39552
2018-09-04T07:51:59.128Z,40416
2018-09-04T07:52:59.139Z,44480
2018-09-04T07:53:59.197Z,46016
2018-09-04T07:54:59.401Z,43712
2018-09-04T07:55:58.914Z,41600
2018-09-04T07:56:58.918Z,42624
2018-09-04T07:57:59.186Z,45536
2018-09-04T07:58:59.194Z,46336
2018-09-04T07:59:59.206Z,44192
2018-09-04T08:00:59.133Z,40512
2018-09-04T08:01:59.220Z,39520
2018-09-04T08:02:59.227Z,41888
2018-09-04T08:03:58.989Z,41280
2018-09-04T08:04:58.743Z,36480
2018-09-04T08:05:59.261Z,34432
2018-09-04T08:06:59.270Z,37344
2018-09-04T08:07:59.281Z,40480
2018-09-04T08:08:59.278Z,43008
2018-09-04T08:09:59.433Z,44832
2018-09-04T08:10:59.298Z,45312
2018-09-04T08:11:59.305Z,44512
2018-09-04T08:12:58.557Z,42816
2018-09-04T08:13:59.322Z,42080
2018-09-04T08:14:58.828Z,40832
2018-09-04T08:15:59.344Z,39360
2018-09-04T08:16:59.356Z,40064
2018-09-04T08:17:59.359Z,44608
2018-09-04T08:18:59.374Z,40704
2018-09-04T08:19:59.376Z,22464
2018-09-04T08:20:59.619Z,12732
2018-09-04T08:21:59.146Z,12468
2018-09-04T08:22:59.398Z,12388
2018-09-04T08:23:59.412Z,12340
2018-09-04T08:24:59.415Z,12292
2018-09-04T08:25:59.722Z,12220
2018-09-04T08:26:59.172Z,12144
2018-09-04T08:27:59.436Z,12088
2018-09-04T08:28:59.437Z,12036
2018-09-04T08:29:59.444Z,12008
2018-09-04T08:30:59.454Z,11960
2018-09-04T08:31:59.207Z,11920
2018-09-04T08:33:00.130Z,11900
2018-09-04T08:33:59.468Z,11896
2018-09-04T08:34:59.467Z,11916
2018-09-04T08:35:59.470Z,11932
2018-09-04T08:36:59.220Z,11952
2018-09-04T08:37:59.479Z,11952
2018-09-04T08:38:59.228Z,11936
2018-09-04T08:39:59.348Z,11884
2018-09-04T08:40:59.489Z,11832
2018-09-04T08:41:59.239Z,11752
2018-09-04T08:42:59.502Z,11676
2018-09-04T08:43:59.495Z,11604
2018-09-04T08:44:59.251Z,11520
2018-09-04T08:45:59.505Z,11436
2018-09-04T08:46:59.504Z,11348
2018-09-04T08:47:59.725Z,11240
2018-09-04T08:48:59.002Z,11172
2018-09-04T08:49:59.524Z,11096
2018-09-04T08:50:59.562Z,11000
2018-09-04T08:51:59.260Z,10920
2018-09-04T08:52:59.265Z,10872
2018-09-04T08:53:59.265Z,10812
2018-09-04T08:54:59.526Z,10748
2018-09-04T08:55:59.267Z,10704
2018-09-04T08:56:59.271Z,10668
2018-09-04T08:57:59.520Z,10608
2018-09-04T08:58:59.015Z,10548
2018-09-04T08:59:59.277Z,10480
2018-09-04T09:00:59.533Z,10412
2018-09-04T09:01:59.019Z,10364
2018-09-04T09:02:59.276Z,10320
2018-09-04T09:03:59.671Z,10256
2018-09-04T09:04:59.279Z,10184
2018-09-04T09:05:59.537Z,10120
2018-09-04T09:06:59.274Z,10044
2018-09-04T09:07:59.024Z,9944
2018-09-04T09:08:59.025Z,9868
2018-09-04T09:09:59.481Z,9780
2018-09-04T09:10:59.025Z,9700
2018-09-04T09:11:59.287Z,9656
2018-09-04T09:12:59.279Z,9624
2018-09-04T09:13:59.540Z,9576
2018-09-04T09:14:59.285Z,9544
2018-09-04T09:15:59.281Z,9524
2018-09-04T09:16:59.686Z,9500
2018-09-04T09:17:59.538Z,9484
2018-09-04T09:18:59.536Z,9444
2018-09-04T09:19:59.283Z,9412
2018-09-04T09:20:59.542Z,9396
2018-09-04T09:21:59.538Z,9368
2018-09-04T09:23:00.270Z,9324
2018-09-04T09:23:59.538Z,9264
2018-09-04T09:24:59.284Z,9196
2018-09-04T09:25:59.287Z,9132
2018-09-04T09:26:59.291Z,9076
2018-09-04T09:27:59.291Z,9028
2018-09-04T09:29:01.228Z,8972
2018-09-04T09:29:59.540Z,8920
2018-09-04T09:30:59.291Z,8868
2018-09-04T09:31:59.555Z,8820
2018-09-04T09:32:59.545Z,8772
2018-09-04T09:33:59.542Z,8724
2018-09-04T09:34:59.294Z,8676
2018-09-04T09:35:59.547Z,8632
2018-09-04T09:37:00.101Z,8568
2018-09-04T09:37:59.544Z,8488
2018-09-04T09:38:59.293Z,8400
2018-09-04T09:39:59.554Z,8328
2018-09-04T09:40:59.291Z,8260
2018-09-04T09:41:59.296Z,8188
2018-09-04T09:42:59.545Z,8136
2018-09-04T09:43:59.546Z,8084
2018-09-04T09:44:59.293Z,8012
2018-09-04T09:45:59.555Z,7948
2018-09-04T09:46:59.296Z,7880
2018-09-04T09:47:59.549Z,7804
2018-09-04T09:48:59.551Z,7736
2018-09-04T09:49:59.549Z,7672
2018-09-04T09:50:59.701Z,7596
2018-09-04T09:51:59.053Z,7524
2018-09-04T09:53:14.216Z,7440
2018-09-04T09:53:59.159Z,7392
2018-09-04T09:54:59.297Z,7336
2018-09-04T09:55:59.634Z,7276
2018-09-04T09:56:59.594Z,7228
2018-09-04T09:57:59.044Z,7176
2018-09-04T09:58:59.307Z,7120
2018-09-04T09:59:59.960Z,7056
2018-09-04T10:01:00.050Z,6996
2018-09-04T10:01:59.549Z,6948
2018-09-04T10:02:59.549Z,6904
2018-09-04T10:03:59.507Z,6856
2018-09-04T10:04:59.828Z,6824
2018-09-04T10:05:59.312Z,6756
2018-09-04T10:06:59.554Z,6684
2018-09-04T10:08:00.354Z,6644
2018-09-04T10:08:59.052Z,6612
2018-09-04T10:09:59.810Z,6552
2018-09-04T10:10:59.385Z,6512
2018-09-04T10:11:59.554Z,6484
2018-09-04T10:12:59.299Z,6464
2018-09-04T10:13:59.560Z,6444
2018-09-04T10:14:59.563Z,6424
2018-09-04T10:15:59.301Z,6396
2018-09-04T10:16:59.557Z,6396
2018-09-04T10:17:59.560Z,6392
2018-09-04T10:18:59.303Z,6400
2018-09-04T10:19:59.922Z,6376
2018-09-04T10:20:59.378Z,6332
2018-09-04T10:21:59.560Z,6304
2018-09-04T10:22:59.561Z,6300
2018-09-04T10:23:59.572Z,6324
2018-09-04T10:24:59.305Z,6360
2018-09-04T10:25:59.561Z,6444
2018-09-04T10:26:59.561Z,6524
2018-09-04T10:27:59.306Z,6648
2018-09-04T10:28:59.570Z,6704
2018-09-04T10:29:59.563Z,6668
2018-09-04T10:30:59.560Z,6644
2018-09-04T10:31:59.591Z,6620
2018-09-04T10:32:59.309Z,6732
2018-09-04T10:33:59.560Z,6764
2018-09-04T10:34:59.558Z,6808
2018-09-04T10:35:59.811Z,6780
2018-09-04T10:36:59.321Z,6688
2018-09-04T10:37:59.318Z,6672
2018-09-04T10:38:59.310Z,6652
2018-09-04T10:39:59.563Z,6600
2018-09-04T10:40:59.570Z,6572
2018-09-04T10:41:59.610Z,6600
2018-09-04T10:42:59.568Z,6704
2018-09-04T10:43:59.569Z,6928
2018-09-04T10:44:59.317Z,7208
2018-09-04T10:45:59.317Z,7380
2018-09-04T10:46:59.066Z,7548
2018-09-04T10:47:59.568Z,7764
2018-09-04T10:48:59.066Z,8144
2018-09-04T10:49:59.573Z,8500
2018-09-04T10:50:59.581Z,8876
2018-09-04T10:51:59.573Z,8980
2018-09-04T10:52:59.574Z,9164
2018-09-04T10:53:59.575Z,9672
2018-09-04T10:54:59.572Z,9920
2018-09-04T10:55:59.874Z,10604
2018-09-04T10:56:59.584Z,10944
2018-09-04T10:57:59.676Z,10472
2018-09-04T10:58:59.586Z,9756
2018-09-04T10:59:59.581Z,9388
2018-09-04T11:00:59.590Z,8888
2018-09-04T11:01:59.892Z,8380
2018-09-04T11:02:59.334Z,7956
2018-09-04T11:03:59.341Z,7672
2018-09-04T11:04:59.338Z,7476
2018-09-04T11:05:59.340Z,7380
2018-09-04T11:06:59.341Z,7436
2018-09-04T11:07:59.604Z,7484
2018-09-04T11:08:59.405Z,7528
2018-09-04T11:10:00.742Z,7652
2018-09-04T11:10:59.603Z,7456
2018-09-04T11:11:59.613Z,6960
2018-09-04T11:12:59.351Z,6972
2018-09-04T11:13:59.607Z,6864
2018-09-04T11:14:59.605Z,6768
2018-09-04T11:15:59.617Z,6608
2018-09-04T11:16:59.360Z,6500
2018-09-04T11:17:59.614Z,6432
2018-09-04T11:18:59.613Z,6452
2018-09-04T11:19:59.627Z,6328
2018-09-04T11:20:59.619Z,6196
2018-09-04T11:21:59.621Z,6104
2018-09-04T11:22:59.623Z,6084
2018-09-04T11:23:59.629Z,6112
2018-09-04T11:24:59.627Z,6148
2018-09-04T11:25:59.634Z,6236
2018-09-04T11:26:59.631Z,6412
2018-09-04T11:27:59.382Z,6596
2018-09-04T11:28:59.633Z,6768
2018-09-04T11:29:59.641Z,6900
2018-09-04T11:30:59.641Z,7012
2018-09-04T11:31:59.391Z,7112
2018-09-04T11:32:59.394Z,7116
2018-09-04T11:33:59.397Z,7164
2018-09-04T11:34:59.652Z,6132
2018-09-04T11:35:59.402Z,5868
2018-09-04T11:36:59.405Z,6008
2018-09-04T11:37:59.152Z,6200
2018-09-04T11:38:59.408Z,6196
2018-09-04T11:39:59.410Z,6184
2018-09-04T11:40:59.663Z,6252
2018-09-04T11:41:59.662Z,6488
2018-09-04T11:42:59.662Z,6768
2018-09-04T11:43:59.414Z,6912
2018-09-04T11:44:59.666Z,6936
2018-09-04T11:45:59.673Z,6816
2018-09-04T11:47:00.067Z,6684
2018-09-04T11:47:59.429Z,6572
2018-09-04T11:48:59.424Z,6556
2018-09-04T11:49:59.678Z,6812
2018-09-04T11:50:59.679Z,7096
2018-09-04T11:51:59.431Z,7404
2018-09-04T11:52:59.686Z,7780
2018-09-04T11:53:59.695Z,8128
2018-09-04T11:54:59.694Z,8356
2018-09-04T11:55:59.692Z,8524
2018-09-04T11:56:59.701Z,8656
2018-09-04T11:57:59.696Z,8772
2018-09-04T11:58:59.449Z,8984
2018-09-04T11:59:59.711Z,9236
2018-09-04T12:00:59.450Z,9472
2018-09-04T12:01:59.714Z,9432
2018-09-04T12:02:59.712Z,9116
2018-09-04T12:03:59.713Z,8712
2018-09-04T12:04:59.716Z,8200
2018-09-04T12:05:59.601Z,7664
2018-09-04T12:06:59.726Z,7040
2018-09-04T12:07:59.723Z,6732
2018-09-04T12:08:59.727Z,6476
2018-09-04T12:09:59.731Z,6224
2018-09-04T12:10:59.739Z,5820
2018-09-04T12:11:59.743Z,5632
2018-09-04T12:12:59.788Z,5596
2018-09-04T12:13:59.494Z,5600
2018-09-04T12:14:59.494Z,5820
2018-09-04T12:15:59.751Z,6064
2018-09-04T12:16:59.503Z,6196
2018-09-04T12:17:59.516Z,6032
2018-09-04T12:18:59.946Z,5996
2018-09-04T12:19:59.766Z,5996
2018-09-04T12:21:00.496Z,5820
2018-09-04T12:21:59.262Z,5684
2018-09-04T12:22:59.769Z,5564
2018-09-04T12:23:59.519Z,5564
2018-09-04T12:24:59.755Z,5588
2018-09-04T12:25:59.776Z,5516
2018-09-04T12:26:59.779Z,5524
2018-09-04T12:27:59.779Z,5504
2018-09-04T12:28:59.784Z,5380
2018-09-04T12:29:59.282Z,5248
2018-09-04T12:30:59.541Z,5188
2018-09-04T12:31:59.540Z,5128
2018-09-04T12:32:59.792Z,5104
2018-09-04T12:34:00.203Z,5080
2018-09-04T12:34:59.798Z,5064
2018-09-04T12:35:59.801Z,5044
2018-09-04T12:36:59.553Z,5044
2018-09-04T12:37:59.815Z,5028
2018-09-04T12:38:59.300Z,5000
2018-09-04T12:39:59.815Z,4996
2018-09-04T12:40:59.573Z,4984
2018-09-04T12:41:59.837Z,4992
2018-09-04T12:42:59.818Z,5044
2018-09-04T12:43:59.576Z,5128
2018-09-04T12:44:59.914Z,5224
2018-09-04T12:45:59.863Z,5332
2018-09-04T12:46:59.573Z,5460
2018-09-04T12:47:59.986Z,5664
2018-09-04T12:48:59.584Z,5904
2018-09-04T12:49:59.835Z,6080
2018-09-04T12:50:59.580Z,6268
2018-09-04T12:51:59.836Z,6452
2018-09-04T12:52:59.837Z,6640
2018-09-04T12:53:59.843Z,6772
2018-09-04T12:54:59.850Z,6860
2018-09-04T12:55:59.855Z,6936
2018-09-04T12:56:59.847Z,6880
2018-09-04T12:57:59.847Z,6644
2018-09-04T12:58:59.857Z,6340
2018-09-04T13:00:00.198Z,6148
2018-09-04T13:00:59.858Z,6016
2018-09-04T13:01:59.861Z,5876
2018-09-04T13:02:59.860Z,5748
2018-09-04T13:03:59.863Z,5580
2018-09-04T13:04:59.617Z,5440
2018-09-04T13:05:59.621Z,5400
2018-09-04T13:06:59.614Z,5432
2018-09-04T13:07:59.617Z,5464
2018-09-04T13:08:59.865Z,5564
2018-09-04T13:09:59.370Z,5684
2018-09-04T13:10:59.882Z,5860
2018-09-04T13:11:59.625Z,5840
2018-09-04T13:12:59.883Z,5736
2018-09-04T13:13:59.881Z,5648
2018-09-04T13:14:59.885Z,5496
2018-09-04T13:15:59.890Z,5464
2018-09-04T13:16:59.891Z,5448
2018-09-04T13:17:59.640Z,6736
2018-09-04T13:18:59.900Z,6588
2018-09-04T13:19:59.903Z,6576
2018-09-04T13:20:59.898Z,6548
2018-09-04T13:21:59.991Z,6288
2018-09-04T13:22:59.902Z,6248
2018-09-04T13:23:59.658Z,6072
2018-09-04T13:24:59.657Z,6068
2018-09-04T13:25:59.910Z,6012
2018-09-04T13:26:59.908Z,5920
2018-09-04T13:27:59.915Z,5712
2018-09-04T13:28:59.917Z,5552
2018-09-04T13:29:59.669Z,5468
2018-09-04T13:30:59.919Z,5460
2018-09-04T13:31:59.924Z,5516
2018-09-04T13:32:59.926Z,5596
2018-09-04T13:33:59.670Z,5652
2018-09-04T13:34:59.926Z,5584
2018-09-04T13:35:59.936Z,5504
2018-09-04T13:36:59.681Z,5436
2018-09-04T13:37:59.682Z,5420